KDEH

Details ICAO KDEH
Name DECORAH MUNI
Region United States
Timezone America/Chicago (UTC-6.0)
Plans Departing 1
Arriving 4
Stats Elevation 1,157 ft / 353 m (AMSL)
Location 43.275509° -91.739373°
Runways 1
Magnetic Variation 0.839° W
Sunrise 2017-12-17 13:35:10 UTC / 2017-12-17 07:35:10 Local
Sunset 2017-12-17 22:33:58 UTC / 2017-12-17 16:33:58 Local
Advertisement - Login to hide

Runways

ID Width Length Bearing (true) Bearing (mag) Surface Threshold Offset Overrun Length
11 75 ft / 23 m 3,994 ft / 1,217 m 114.74° 115.58° Concrete 0 ft / 0 m 0 ft / 0 m
29 75 ft / 23 m 3,994 ft / 1,217 m 294.75° 295.59° Concrete 0 ft / 0 m 0 ft / 0 m

Map

Weather


0- 5 10 15 20 25 30 35+ Temperature / ° C

Clouds and Precipitation
Forecast for 2017-12-17 06:00 UTC. Updated an hour ago

Ground ~20,000 ft ~40,000 ft Winds

METAR

KDEH 170615Z AUTO 07005G11KT 3SM BR OVC004 M02/M02 A3003 RMK AO2

TAF

Not found

Frequencies

Recorded 120.92 MHz AWOS 3
Unicom 122.80 MHz CTAF/UNICOM
Warning: Do not use this data for real-world aviation or navigation. No guarantee of current accuracy is given.